Time;durP1;ratioP1;P1;durP2;ratioP2;P2;SDS_P1;SDS_P2;PMS_P1;PMS_P2;Temp;Humidity;BMP_temperature;BMP_pressure;BME280_temperature;BME280_humidity;BME280_pressure;Samples;Min_cycle;Max_cycle;Signal;HPM_P1;HPM_P2
2022/03/30 00:00:20;;;;;;;12.33;11.00;;;;;;;;;;4504236;28;20069;-77
2022/03/30 00:02:31;;;;;;;11.87;10.67;;;;;;;;;;4505059;28;20026;-77
2022/03/30 00:04:41;;;;;;;12.73;11.03;;;;;;;;;;4503900;28;38160;-77
2022/03/30 00:06:52;;;;;;;12.60;10.97;;;;;;;;;;4505108;28;20048;-77
2022/03/30 00:09:02;;;;;;;12.77;11.03;;;;;;;;;;4504153;28;20034;-76
2022/03/30 00:11:13;;;;;;;12.97;11.23;;;;;;;;;;4502989;28;24239;-77
2022/03/30 00:13:23;;;;;;;11.73;10.40;;;;;;;;;;4497910;28;20030;-77
2022/03/30 00:15:34;;;;;;;11.87;10.23;;;;;;;;;;4505604;28;20048;-77
2022/03/30 00:17:44;;;;;;;11.83;10.40;;;;;;;;;;4504122;28;31448;-77
2022/03/30 00:19:56;;;;;;;12.20;10.80;;;;;;;;;;4504660;28;20038;-76
2022/03/30 00:22:07;;;;;;;12.68;11.25;;;;;;;;;;4520748;28;20316;-76
2022/03/30 00:24:17;;;;;;;12.23;10.53;;;;;;;;;;4505363;28;20042;-77
2022/03/30 00:26:28;;;;;;;11.80;10.60;;;;;;;;;;4504385;28;20131;-77
2022/03/30 00:28:40;;;;;;;12.35;10.70;;;;;;;;;;4504996;28;20037;-77
2022/03/30 00:30:50;;;;;;;12.17;10.63;;;;;;;;;;4504705;28;20078;-76
2022/03/30 00:33:00;;;;;;;12.73;11.10;;;;;;;;;;4504098;28;20029;-77
2022/03/30 00:35:11;;;;;;;11.20;9.73;;;;;;;;;;4504754;28;20587;-77
2022/03/30 00:37:22;;;;;;;12.50;10.68;;;;;;;;;;4503046;28;20048;-76
2022/03/30 00:39:32;;;;;;;12.60;10.63;;;;;;;;;;4502655;28;20029;-77
2022/03/30 00:41:43;;;;;;;11.83;10.50;;;;;;;;;;4505061;28;20117;-77
2022/03/30 00:43:53;;;;;;;12.37;10.93;;;;;;;;;;4503191;28;20578;-76
2022/03/30 00:46:04;;;;;;;11.30;9.80;;;;;;;;;;4504424;28;28722;-76
2022/03/30 00:48:14;;;;;;;11.33;10.03;;;;;;;;;;4504671;28;20128;-77
2022/03/30 00:50:24;;;;;;;12.20;10.23;;;;;;;;;;4503624;28;20442;-76
2022/03/30 00:52:36;;;;;;;11.63;10.27;;;;;;;;;;4503675;28;20042;-77
2022/03/30 00:54:49;;;;;;;11.38;9.63;;;;;;;;;;4499489;28;20049;-77
2022/03/30 00:57:00;;;;;;;12.88;10.48;;;;;;;;;;4503120;28;20038;-77
2022/03/30 00:59:11;;;;;;;11.50;9.80;;;;;;;;;;4504125;28;20046;-77
2022/03/30 01:01:22;;;;;;;11.40;9.63;;;;;;;;;;4503293;28;20037;-77
2022/03/30 01:03:34;;;;;;;10.93;9.63;;;;;;;;;;4497839;28;21036;-77
2022/03/30 01:05:45;;;;;;;13.13;10.77;;;;;;;;;;4504452;28;20038;-76
2022/03/30 01:07:58;;;;;;;11.10;9.90;;;;;;;;;;4504088;28;20038;-77
2022/03/30 01:10:10;;;;;;;11.05;9.63;;;;;;;;;;4503696;28;20034;-77
2022/03/30 01:12:20;;;;;;;10.18;9.07;;;;;;;;;;4503485;28;20041;-76
2022/03/30 01:14:32;;;;;;;10.67;9.40;;;;;;;;;;4503525;28;20034;-76
2022/03/30 01:16:42;;;;;;;10.82;9.73;;;;;;;;;;4504055;28;20924;-77
2022/03/30 01:19:07;;;;;;;10.67;9.27;;;;;;;;;;4503460;28;20172;-77
2022/03/30 01:21:17;;;;;;;12.65;10.00;;;;;;;;;;4503295;28;20265;-77
2022/03/30 01:23:28;;;;;;;10.27;9.03;;;;;;;;;;4504589;28;20120;-77
2022/03/30 01:25:38;;;;;;;11.80;9.43;;;;;;;;;;4503980;28;20065;-77
2022/03/30 01:27:49;;;;;;;10.07;8.97;;;;;;;;;;4486799;28;20061;-76
2022/03/30 01:32:37;;;;;;;9.77;8.75;;;;;;;;;;4504166;28;20088;-77
2022/03/30 01:34:48;;;;;;;10.82;9.43;;;;;;;;;;4503218;28;20065;-76
2022/03/30 01:36:59;;;;;;;11.43;9.60;;;;;;;;;;4503064;28;20073;-76
2022/03/30 01:39:10;;;;;;;10.27;9.07;;;;;;;;;;4503339;28;20194;-76
2022/03/30 01:41:20;;;;;;;10.95;9.15;;;;;;;;;;4502724;28;20038;-76
2022/03/30 01:43:32;;;;;;;11.33;9.20;;;;;;;;;;4503130;28;32548;-76
2022/03/30 01:45:42;;;;;;;10.27;8.57;;;;;;;;;;4504457;28;20125;-76
2022/03/30 01:47:55;;;;;;;10.80;9.10;;;;;;;;;;4503808;28;20235;-76
2022/03/30 01:50:09;;;;;;;10.57;8.90;;;;;;;;;;4501784;28;20042;-76
2022/03/30 01:52:19;;;;;;;10.60;9.05;;;;;;;;;;4502772;28;20803;-76
2022/03/30 01:54:34;;;;;;;10.57;8.90;;;;;;;;;;4503971;28;20132;-76
2022/03/30 01:56:45;;;;;;;9.93;8.73;;;;;;;;;;4519138;28;20040;-76
2022/03/30 01:58:56;;;;;;;9.50;8.30;;;;;;;;;;4496669;28;20116;-76
2022/03/30 02:01:06;;;;;;;10.03;8.57;;;;;;;;;;4497798;28;20668;-76
2022/03/30 02:03:17;;;;;;;10.00;8.33;;;;;;;;;;4502998;28;20474;-76
2022/03/30 02:05:28;;;;;;;9.90;8.10;;;;;;;;;;4502720;28;20030;-76
2022/03/30 02:07:39;;;;;;;9.50;8.15;;;;;;;;;;4503662;28;20621;-76
2022/03/30 02:09:50;;;;;;;10.77;9.15;;;;;;;;;;4502755;28;20901;-76
2022/03/30 02:12:00;;;;;;;10.30;8.57;;;;;;;;;;4503794;28;20610;-76
2022/03/30 02:14:10;;;;;;;9.87;8.60;;;;;;;;;;4503373;28;26364;-76
2022/03/30 02:16:21;;;;;;;10.37;8.93;;;;;;;;;;4503008;28;20041;-76
2022/03/30 02:18:32;;;;;;;9.88;8.25;;;;;;;;;;4519308;28;20387;-76
2022/03/30 02:20:42;;;;;;;10.23;8.33;;;;;;;;;;4503556;28;20042;-76
2022/03/30 02:22:53;;;;;;;9.83;8.47;;;;;;;;;;4503331;28;20394;-75
2022/03/30 02:25:04;;;;;;;9.70;8.13;;;;;;;;;;4501155;28;30185;-76
2022/03/30 02:27:14;;;;;;;10.25;8.30;;;;;;;;;;4503385;28;20486;-76
2022/03/30 02:29:24;;;;;;;9.67;8.13;;;;;;;;;;4503409;28;20050;-75
2022/03/30 02:31:36;;;;;;;9.67;8.13;;;;;;;;;;4503818;28;20057;-76
2022/03/30 02:33:46;;;;;;;10.40;8.20;;;;;;;;;;4503709;28;20895;-76
2022/03/30 02:35:57;;;;;;;9.70;7.72;;;;;;;;;;4503677;28;20030;-76
2022/03/30 02:38:07;;;;;;;10.13;8.27;;;;;;;;;;4502793;28;20517;-76
2022/03/30 02:40:18;;;;;;;9.00;7.77;;;;;;;;;;4502252;28;40554;-75
2022/03/30 02:42:28;;;;;;;8.63;7.73;;;;;;;;;;4518281;28;21278;-76
2022/03/30 02:44:39;;;;;;;9.43;8.13;;;;;;;;;;4502664;28;20088;-76
2022/03/30 02:46:49;;;;;;;9.93;7.73;;;;;;;;;;4486168;28;20038;-75
2022/03/30 02:49:00;;;;;;;9.90;8.33;;;;;;;;;;4502170;28;20044;-76
2022/03/30 02:51:10;;;;;;;9.37;7.50;;;;;;;;;;4501728;28;20038;-76
2022/03/30 02:53:21;;;;;;;9.63;8.35;;;;;;;;;;4503738;28;20437;-76
2022/03/30 02:55:31;;;;;;;9.67;7.27;;;;;;;;;;4501404;28;20038;-75
2022/03/30 02:57:42;;;;;;;9.27;7.47;;;;;;;;;;4502045;28;20054;-76
2022/03/30 02:59:52;;;;;;;8.90;7.40;;;;;;;;;;4503222;28;20142;-75
2022/03/30 03:02:03;;;;;;;9.10;7.47;;;;;;;;;;4502337;28;30612;-76
2022/03/30 03:04:13;;;;;;;9.47;7.90;;;;;;;;;;4505174;28;20081;-75
2022/03/30 03:06:24;;;;;;;9.50;7.53;;;;;;;;;;4505859;28;20042;-75
2022/03/30 03:08:34;;;;;;;10.07;7.60;;;;;;;;;;4506254;28;20033;-76
2022/03/30 03:10:46;;;;;;;9.27;7.43;;;;;;;;;;4506186;28;20045;-76
2022/03/30 03:12:57;;;;;;;9.55;7.72;;;;;;;;;;4520980;28;21244;-76
2022/03/30 03:15:07;;;;;;;8.70;7.33;;;;;;;;;;4507653;28;20050;-75
2022/03/30 03:17:18;;;;;;;9.00;7.57;;;;;;;;;;4503950;28;20042;-75
2022/03/30 03:19:28;;;;;;;9.83;7.77;;;;;;;;;;4505841;28;20034;-76
2022/03/30 03:21:39;;;;;;;8.90;7.17;;;;;;;;;;4506433;28;20069;-76
2022/03/30 03:23:49;;;;;;;8.67;7.23;;;;;;;;;;4504738;28;37841;-76
2022/03/30 03:26:00;;;;;;;9.70;7.53;;;;;;;;;;4505850;28;20034;-76
2022/03/30 03:28:11;;;;;;;8.80;7.23;;;;;;;;;;4504492;28;20036;-76
2022/03/30 03:30:22;;;;;;;9.50;7.45;;;;;;;;;;4506246;28;20108;-75
2022/03/30 03:32:32;;;;;;;9.67;7.67;;;;;;;;;;4506072;28;20096;-76
2022/03/30 03:34:43;;;;;;;9.40;6.80;;;;;;;;;;4506036;28;20041;-75
2022/03/30 03:36:53;;;;;;;9.00;7.20;;;;;;;;;;4504965;28;28509;-75
2022/03/30 03:39:04;;;;;;;8.87;7.07;;;;;;;;;;4504722;28;31233;-75
2022/03/30 03:41:14;;;;;;;9.17;7.03;;;;;;;;;;4505284;28;20022;-76
2022/03/30 03:43:25;;;;;;;8.50;6.77;;;;;;;;;;4504997;28;20026;-77
2022/03/30 03:45:35;;;;;;;7.83;6.43;;;;;;;;;;4505931;28;20042;-76
2022/03/30 03:47:48;;;;;;;9.27;7.13;;;;;;;;;;4505708;28;20140;-76
2022/03/30 03:49:58;;;;;;;8.40;6.60;;;;;;;;;;4505779;28;20812;-76
2022/03/30 03:52:09;;;;;;;8.37;6.87;;;;;;;;;;4505498;28;20041;-76
2022/03/30 03:54:19;;;;;;;8.17;6.57;;;;;;;;;;4505649;28;20034;-75
2022/03/30 03:56:30;;;;;;;9.03;7.17;;;;;;;;;;4506042;28;20494;-76
2022/03/30 03:58:40;;;;;;;9.50;7.65;;;;;;;;;;4505179;28;20970;-75
2022/03/30 04:00:51;;;;;;;8.13;6.83;;;;;;;;;;4505502;28;20180;-75
2022/03/30 04:03:02;;;;;;;9.17;6.40;;;;;;;;;;4505641;28;20095;-76
2022/03/30 04:05:14;;;;;;;8.23;6.70;;;;;;;;;;4505336;28;20022;-75
2022/03/30 04:07:24;;;;;;;7.70;6.43;;;;;;;;;;4505909;28;20620;-76
2022/03/30 04:09:34;;;;;;;8.97;7.13;;;;;;;;;;4505921;28;20041;-76
2022/03/30 04:11:45;;;;;;;8.83;6.90;;;;;;;;;;4504425;28;36563;-75
2022/03/30 04:13:55;;;;;;;8.40;6.57;;;;;;;;;;4503318;28;30492;-76
2022/03/30 04:16:06;;;;;;;7.57;6.40;;;;;;;;;;4504145;28;20165;-75
2022/03/30 04:18:16;;;;;;;8.13;6.20;;;;;;;;;;4505376;28;20192;-76
2022/03/30 04:20:27;;;;;;;8.40;6.63;;;;;;;;;;4505724;28;20034;-76
2022/03/30 04:22:37;;;;;;;8.50;6.60;;;;;;;;;;4505240;28;20085;-76
2022/03/30 04:24:48;;;;;;;8.17;6.77;;;;;;;;;;4503271;28;33567;-75
2022/03/30 04:26:58;;;;;;;8.47;6.80;;;;;;;;;;4503157;28;28921;-75
2022/03/30 04:29:08;;;;;;;7.33;5.83;;;;;;;;;;4504722;28;20038;-75
2022/03/30 04:31:19;;;;;;;8.23;6.40;;;;;;;;;;4505108;28;20042;-75
2022/03/30 04:33:29;;;;;;;8.53;6.47;;;;;;;;;;4503619;28;20060;-75
2022/03/30 04:35:40;;;;;;;8.23;6.57;;;;;;;;;;4503715;28;20058;-75
2022/03/30 04:37:54;;;;;;;8.77;6.70;;;;;;;;;;4504863;28;20052;-75
2022/03/30 04:40:06;;;;;;;7.78;6.38;;;;;;;;;;4505510;28;20030;-74
2022/03/30 04:42:20;;;;;;;7.53;6.07;;;;;;;;;;4505383;28;20588;-73
2022/03/30 04:44:30;;;;;;;7.85;6.05;;;;;;;;;;4504576;28;20125;-73
2022/03/30 04:46:40;;;;;;;7.80;6.30;;;;;;;;;;4505659;28;20042;-74
2022/03/30 04:48:51;;;;;;;7.93;6.10;;;;;;;;;;4497213;28;20583;-73
2022/03/30 04:51:02;;;;;;;7.50;5.87;;;;;;;;;;4502830;28;20046;-73
2022/03/30 04:53:12;;;;;;;6.80;5.80;;;;;;;;;;4505125;28;20090;-74
2022/03/30 04:55:23;;;;;;;8.07;6.30;;;;;;;;;;4504240;28;34424;-73
2022/03/30 04:57:33;;;;;;;9.20;6.63;;;;;;;;;;4505227;28;20046;-74
2022/03/30 04:59:44;;;;;;;6.90;5.57;;;;;;;;;;4503249;28;20494;-73
2022/03/30 05:01:54;;;;;;;8.17;6.23;;;;;;;;;;4504999;28;20030;-73
2022/03/30 05:04:06;;;;;;;8.20;5.87;;;;;;;;;;4504269;28;20493;-73
2022/03/30 05:06:16;;;;;;;7.05;5.78;;;;;;;;;;4504409;28;20030;-73
2022/03/30 05:08:27;;;;;;;8.70;6.47;;;;;;;;;;4503307;28;20494;-74
2022/03/30 05:10:37;;;;;;;6.97;5.67;;;;;;;;;;4504460;28;20030;-73
2022/03/30 05:12:48;;;;;;;7.30;5.87;;;;;;;;;;4504831;28;20442;-73
2022/03/30 05:14:58;;;;;;;8.07;6.47;;;;;;;;;;4504574;28;20121;-74
2022/03/30 05:17:08;;;;;;;8.13;6.27;;;;;;;;;;4503858;28;30031;-73
2022/03/30 05:19:19;;;;;;;6.63;5.80;;;;;;;;;;4503979;28;20038;-73
2022/03/30 05:21:30;;;;;;;7.00;5.57;;;;;;;;;;4502578;28;23593;-73
2022/03/30 05:23:40;;;;;;;7.10;5.73;;;;;;;;;;4503727;28;20073;-73
2022/03/30 05:25:50;;;;;;;8.13;6.00;;;;;;;;;;4502437;28;20034;-73
2022/03/30 05:28:01;;;;;;;7.13;5.70;;;;;;;;;;4503258;28;20477;-73
2022/03/30 05:30:12;;;;;;;6.63;5.47;;;;;;;;;;4503725;28;20030;-73
2022/03/30 05:32:23;;;;;;;6.97;5.55;;;;;;;;;;4503341;28;20664;-75
2022/03/30 05:34:33;;;;;;;7.87;5.93;;;;;;;;;;4502590;28;20034;-75
2022/03/30 05:36:43;;;;;;;7.40;5.57;;;;;;;;;;4503935;28;20029;-74
2022/03/30 05:38:54;;;;;;;7.00;5.33;;;;;;;;;;4502680;28;20049;-74
2022/03/30 05:41:04;;;;;;;7.80;5.80;;;;;;;;;;4502163;28;20045;-74
2022/03/30 05:43:15;;;;;;;8.17;5.77;;;;;;;;;;4501101;28;20034;-74
2022/03/30 05:45:25;;;;;;;6.93;5.60;;;;;;;;;;4503259;28;20037;-75
2022/03/30 05:47:35;;;;;;;6.83;5.63;;;;;;;;;;4502268;28;22395;-75
2022/03/30 05:49:46;;;;;;;6.47;5.33;;;;;;;;;;4502165;28;20026;-74
2022/03/30 05:51:56;;;;;;;6.03;5.17;;;;;;;;;;4502205;28;20034;-74
2022/03/30 05:54:07;;;;;;;6.93;5.53;;;;;;;;;;4499402;28;27130;-74
2022/03/30 05:56:17;;;;;;;7.23;5.50;;;;;;;;;;4502237;28;20048;-74
2022/03/30 05:58:28;;;;;;;7.33;5.73;;;;;;;;;;4501927;28;20044;-74
2022/03/30 06:00:38;;;;;;;6.17;4.90;;;;;;;;;;4502409;28;20502;-74
2022/03/30 06:02:49;;;;;;;6.20;5.30;;;;;;;;;;4502971;28;20057;-75
2022/03/30 06:04:59;;;;;;;7.20;5.70;;;;;;;;;;4502759;28;20065;-75
2022/03/30 06:07:10;;;;;;;6.43;5.27;;;;;;;;;;4502657;28;20101;-75
2022/03/30 06:09:20;;;;;;;7.57;5.67;;;;;;;;;;4501531;28;20434;-74
2022/03/30 06:11:31;;;;;;;7.10;5.33;;;;;;;;;;4502365;28;20144;-75
2022/03/30 06:13:41;;;;;;;7.23;5.60;;;;;;;;;;4502412;28;20042;-75
2022/03/30 06:15:52;;;;;;;7.13;5.70;;;;;;;;;;4502678;28;20561;-75
2022/03/30 06:18:03;;;;;;;7.63;6.07;;;;;;;;;;4502496;28;20116;-75
2022/03/30 06:20:14;;;;;;;6.80;5.57;;;;;;;;;;4502051;28;20049;-74
2022/03/30 06:22:29;;;;;;;7.13;5.50;;;;;;;;;;4502851;28;20032;-74
2022/03/30 06:24:41;;;;;;;8.73;5.63;;;;;;;;;;4502142;28;20353;-75
2022/03/30 06:26:51;;;;;;;7.65;5.80;;;;;;;;;;4504179;28;20021;-75
2022/03/30 06:29:02;;;;;;;7.23;5.97;;;;;;;;;;4503446;28;20069;-73
2022/03/30 06:31:17;;;;;;;7.70;5.53;;;;;;;;;;4502668;28;28352;-75
2022/03/30 06:33:27;;;;;;;7.18;5.68;;;;;;;;;;4503332;28;20037;-75
2022/03/30 06:35:39;;;;;;;6.77;5.47;;;;;;;;;;4502980;28;20034;-75
2022/03/30 06:37:49;;;;;;;6.45;5.35;;;;;;;;;;4502811;28;20049;-75
2022/03/30 06:39:59;;;;;;;6.17;5.13;;;;;;;;;;4495454;28;20049;-74
2022/03/30 06:42:10;;;;;;;7.27;5.47;;;;;;;;;;4501357;28;34298;-75
2022/03/30 06:44:20;;;;;;;7.20;5.83;;;;;;;;;;4502847;28;20085;-75
2022/03/30 06:46:33;;;;;;;6.50;5.33;;;;;;;;;;4502917;28;20034;-74
2022/03/30 06:48:47;;;;;;;6.90;5.80;;;;;;;;;;4496975;28;20649;-75
2022/03/30 06:50:58;;;;;;;6.65;5.30;;;;;;;;;;4498138;28;20034;-75
2022/03/30 06:53:10;;;;;;;6.90;5.33;;;;;;;;;;4501175;28;20026;-75
2022/03/30 06:55:20;;;;;;;6.53;5.28;;;;;;;;;;4503095;28;20065;-75
2022/03/30 06:57:31;;;;;;;6.60;5.50;;;;;;;;;;4501347;28;28778;-75
2022/03/30 06:59:41;;;;;;;6.77;5.47;;;;;;;;;;4502178;28;20066;-75
2022/03/30 07:01:53;;;;;;;6.40;5.17;;;;;;;;;;4501970;28;30369;-75
2022/03/30 07:04:04;;;;;;;7.00;5.65;;;;;;;;;;4502908;28;20041;-75
2022/03/30 07:06:17;;;;;;;6.67;5.63;;;;;;;;;;4503030;28;20041;-74
2022/03/30 07:10:56;;;;;;;6.68;5.47;;;;;;;;;;4503055;28;20034;-71
2022/03/30 07:13:07;;;;;;;6.77;5.50;;;;;;;;;;4502762;28;20038;-71
2022/03/30 07:15:19;;;;;;;7.73;5.70;;;;;;;;;;4502023;28;20421;-71
2022/03/30 07:17:30;;;;;;;6.90;5.53;;;;;;;;;;4497325;28;20034;-71
2022/03/30 07:19:41;;;;;;;6.43;5.45;;;;;;;;;;4502240;28;20049;-71
2022/03/30 07:21:51;;;;;;;7.33;5.90;;;;;;;;;;4501952;28;20049;-71
2022/03/30 07:24:02;;;;;;;6.90;5.57;;;;;;;;;;4488108;28;20457;-71
2022/03/30 07:26:12;;;;;;;7.57;5.90;;;;;;;;;;4502056;28;20042;-71
2022/03/30 07:28:22;;;;;;;7.53;5.87;;;;;;;;;;4502594;28;20037;-71
2022/03/30 07:30:33;;;;;;;8.53;5.83;;;;;;;;;;4502706;28;20065;-71
2022/03/30 07:32:45;;;;;;;7.10;5.63;;;;;;;;;;4502741;28;20073;-71
2022/03/30 07:34:56;;;;;;;6.93;5.88;;;;;;;;;;4501365;28;20132;-71
2022/03/30 07:37:06;;;;;;;7.43;5.70;;;;;;;;;;4501857;28;20129;-71
2022/03/30 07:39:16;;;;;;;7.20;5.53;;;;;;;;;;4502183;28;21158;-71
2022/03/30 07:41:27;;;;;;;6.93;5.60;;;;;;;;;;4501341;28;20277;-71
2022/03/30 07:43:37;;;;;;;7.13;5.60;;;;;;;;;;4500778;28;20042;-70
2022/03/30 07:45:48;;;;;;;7.40;5.70;;;;;;;;;;4502222;28;20037;-71
2022/03/30 07:47:58;;;;;;;8.10;6.13;;;;;;;;;;4501621;28;20117;-71
2022/03/30 07:50:11;;;;;;;8.00;6.20;;;;;;;;;;4504070;28;20483;-70
2022/03/30 07:52:21;;;;;;;7.90;5.75;;;;;;;;;;4505097;28;20996;-70
2022/03/30 07:54:31;;;;;;;7.13;5.57;;;;;;;;;;4499359;28;20038;-71
2022/03/30 07:56:43;;;;;;;9.50;6.13;;;;;;;;;;4504269;28;20104;-71
2022/03/30 07:58:56;;;;;;;6.90;5.77;;;;;;;;;;4505288;28;20092;-71
2022/03/30 08:01:06;;;;;;;8.15;6.10;;;;;;;;;;4504070;28;20030;-71
2022/03/30 08:03:17;;;;;;;7.37;5.90;;;;;;;;;;4505222;28;20034;-71
2022/03/30 08:05:27;;;;;;;7.80;5.93;;;;;;;;;;4505186;28;20034;-71
2022/03/30 08:07:40;;;;;;;7.80;6.03;;;;;;;;;;4504096;28;20042;-71
2022/03/30 08:09:50;;;;;;;7.45;5.72;;;;;;;;;;4504370;28;20046;-71
2022/03/30 08:12:00;;;;;;;8.53;5.83;;;;;;;;;;4504665;28;20401;-70
2022/03/30 08:14:12;;;;;;;7.27;5.93;;;;;;;;;;4504750;28;20149;-70
2022/03/30 08:16:22;;;;;;;7.32;5.72;;;;;;;;;;4497230;28;20121;-71
2022/03/30 08:18:33;;;;;;;8.63;5.45;;;;;;;;;;4502558;28;20111;-71
2022/03/30 08:23:12;;;;;;;8.88;6.10;;;;;;;;;;4503860;28;20034;-70
2022/03/30 08:25:23;;;;;;;6.67;5.53;;;;;;;;;;4503352;28;20030;-70
2022/03/30 08:27:35;;;;;;;7.43;5.73;;;;;;;;;;4504654;28;20046;-69
2022/03/30 08:29:46;;;;;;;7.07;5.47;;;;;;;;;;4504605;28;20116;-69
2022/03/30 08:31:56;;;;;;;7.90;6.10;;;;;;;;;;4502992;28;20046;-69
2022/03/30 08:34:07;;;;;;;8.00;5.97;;;;;;;;;;4489343;28;20030;-69
2022/03/30 08:36:17;;;;;;;9.63;6.03;;;;;;;;;;4504243;28;20052;-69
2022/03/30 08:38:29;;;;;;;8.00;5.67;;;;;;;;;;4504891;28;20034;-69
2022/03/30 08:40:40;;;;;;;7.55;5.80;;;;;;;;;;4497058;28;20912;-68
2022/03/30 08:42:51;;;;;;;9.63;5.93;;;;;;;;;;4504018;28;20124;-68
2022/03/30 08:45:03;;;;;;;8.35;5.85;;;;;;;;;;4505141;28;20038;-68
2022/03/30 08:47:14;;;;;;;8.27;6.25;;;;;;;;;;4504844;28;20097;-68
2022/03/30 08:49:26;;;;;;;8.73;6.27;;;;;;;;;;4504779;28;20136;-69
2022/03/30 08:51:41;;;;;;;7.95;5.90;;;;;;;;;;4503926;28;20030;-68
2022/03/30 08:53:51;;;;;;;8.25;6.45;;;;;;;;;;4504468;28;20029;-68
2022/03/30 08:56:02;;;;;;;7.83;6.00;;;;;;;;;;4489757;28;20034;-68
2022/03/30 08:58:13;;;;;;;7.82;6.32;;;;;;;;;;4503833;28;20048;-68
2022/03/30 09:00:25;;;;;;;8.13;6.35;;;;;;;;;;4503489;28;20041;-68
2022/03/30 09:02:41;;;;;;;8.68;6.25;;;;;;;;;;4504350;28;20042;-68
2022/03/30 09:05:11;;;;;;;7.53;5.88;;;;;;;;;;4520220;28;20723;-68
2022/03/30 09:07:22;;;;;;;6.93;5.60;;;;;;;;;;4503507;28;20148;-68
2022/03/30 09:09:35;;;;;;;8.40;6.30;;;;;;;;;;4504224;28;21096;-68
2022/03/30 09:11:53;;;;;;;7.95;6.07;;;;;;;;;;4503089;28;20081;-68
2022/03/30 09:14:04;;;;;;;7.43;5.90;;;;;;;;;;4503897;28;20032;-68
2022/03/30 09:16:15;;;;;;;;;;;;;;;;;;4504340;28;20065;-68
2022/03/30 09:18:25;;;;;;;8.38;6.40;;;;;;;;;;4504459;28;19925;-68
2022/03/30 09:20:38;;;;;;;8.07;5.70;;;;;;;;;;4502312;28;20077;-68
2022/03/30 09:22:53;;;;;;;7.90;5.97;;;;;;;;;;4503456;28;20069;-68
2022/03/30 09:25:07;;;;;;;8.18;5.78;;;;;;;;;;4503730;28;21006;-68
2022/03/30 09:27:22;;;;;;;9.90;6.63;;;;;;;;;;4504343;28;20026;-68
2022/03/30 09:29:34;;;;;;;7.78;6.05;;;;;;;;;;4503376;28;20065;-68
2022/03/30 09:31:45;;;;;;;9.40;5.97;;;;;;;;;;4502742;28;20061;-68
2022/03/30 09:33:59;;;;;;;8.40;6.03;;;;;;;;;;4502767;28;20120;-68
2022/03/30 09:36:26;;;;;;;8.85;6.30;;;;;;;;;;4501975;28;20054;-68
2022/03/30 09:38:38;;;;;;;7.90;6.07;;;;;;;;;;4502889;28;20038;-68
2022/03/30 09:41:04;;;;;;;8.02;5.97;;;;;;;;;;4502515;28;20084;-68
2022/03/30 09:43:26;;;;;;;7.50;5.80;;;;;;;;;;4503896;28;20034;-68
2022/03/30 09:45:37;;;;;;;8.15;6.07;;;;;;;;;;4499917;28;20116;-68
2022/03/30 09:47:47;;;;;;;7.67;5.87;;;;;;;;;;4501819;28;20097;-68
2022/03/30 09:49:59;;;;;;;7.67;6.00;;;;;;;;;;4501595;28;20514;-68
2022/03/30 09:52:17;;;;;;;8.70;6.10;;;;;;;;;;4503092;28;20069;-68
2022/03/30 09:54:41;;;;;;;8.05;6.45;;;;;;;;;;4502903;28;20036;-68
2022/03/30 09:56:51;;;;;;;7.75;6.03;;;;;;;;;;4501986;28;20088;-68
2022/03/30 09:59:02;;;;;;;9.53;6.30;;;;;;;;;;4502703;28;23304;-68
2022/03/30 10:01:17;;;;;;;8.55;5.90;;;;;;;;;;4503041;28;20181;-68
2022/03/30 10:03:44;;;;;;;9.07;6.70;;;;;;;;;;4502625;28;20773;-68
2022/03/30 10:05:55;;;;;;;8.23;6.35;;;;;;;;;;4503854;28;20034;-68
2022/03/30 10:08:06;;;;;;;8.32;6.75;;;;;;;;;;4502829;28;25608;-68
2022/03/30 10:10:19;;;;;;;8.43;6.37;;;;;;;;;;4502319;28;20038;-68
2022/03/30 10:12:30;;;;;;;9.18;6.72;;;;;;;;;;4503195;28;20038;-68
2022/03/30 10:14:40;;;;;;;9.73;7.00;;;;;;;;;;4502264;28;20041;-68
2022/03/30 10:16:51;;;;;;;8.70;6.27;;;;;;;;;;4502146;28;20089;-68
2022/03/30 10:19:01;;;;;;;9.00;6.30;;;;;;;;;;4497727;28;20125;-67
2022/03/30 10:21:49;;;;;;;9.83;6.23;;;;;;;;;;4501924;28;20034;-68
2022/03/30 10:24:27;;;;;;;9.45;6.63;;;;;;;;;;4502969;28;20788;-68
2022/03/30 10:26:57;;;;;;;9.73;7.00;;;;;;;;;;4502588;28;20734;-68
2022/03/30 10:29:11;;;;;;;9.27;6.88;;;;;;;;;;4502386;28;20190;-68
2022/03/30 10:31:22;;;;;;;8.43;6.55;;;;;;;;;;4503329;28;20817;-68
2022/03/30 10:33:36;;;;;;;9.93;6.85;;;;;;;;;;4503720;28;20038;-68
2022/03/30 10:35:48;;;;;;;9.25;7.00;;;;;;;;;;4487498;28;20044;-68
2022/03/30 10:37:59;;;;;;;;;;;;;;;;;;4502420;28;21327;-68
2022/03/30 10:40:18;;;;;;;9.40;6.90;;;;;;;;;;4503693;28;19921;-68
2022/03/30 10:42:47;;;;;;;8.25;6.40;;;;;;;;;;4503370;28;20030;-68
2022/03/30 10:45:01;;;;;;;8.32;6.60;;;;;;;;;;4502785;28;20037;-68
2022/03/30 10:47:20;;;;;;;9.20;6.95;;;;;;;;;;4502070;28;20080;-68
2022/03/30 10:49:58;;;;;;;9.00;6.63;;;;;;;;;;4502946;28;20061;-68
2022/03/30 10:52:29;;;;;;;9.70;6.75;;;;;;;;;;4500417;28;20632;-67
2022/03/30 10:54:39;;;;;;;8.75;6.97;;;;;;;;;;4502971;28;20064;-68
2022/03/30 10:56:50;;;;;;;10.67;7.20;;;;;;;;;;4501480;28;27745;-68
2022/03/30 10:59:00;;;;;;;8.83;6.83;;;;;;;;;;4501475;28;20052;-68
2022/03/30 11:01:25;;;;;;;9.80;7.30;;;;;;;;;;4501704;28;20120;-68
2022/03/30 11:04:18;;;;;;;9.00;6.93;;;;;;;;;;4518343;28;20064;-68
2022/03/30 11:06:30;;;;;;;9.57;6.78;;;;;;;;;;4501800;28;20120;-68
2022/03/30 11:08:40;;;;;;;10.43;7.40;;;;;;;;;;4502003;28;20086;-68
2022/03/30 11:10:51;;;;;;;8.90;7.07;;;;;;;;;;4501560;28;20818;-68
2022/03/30 11:13:11;;;;;;;9.80;7.43;;;;;;;;;;4502538;28;20482;-69
2022/03/30 11:15:22;;;;;;;9.48;7.35;;;;;;;;;;4501933;28;20036;-68
2022/03/30 11:17:40;;;;;;;9.05;6.97;;;;;;;;;;4501222;28;20805;-68
2022/03/30 11:19:50;;;;;;;8.63;6.78;;;;;;;;;;4516382;28;20080;-69
2022/03/30 11:22:12;;;;;;;9.80;7.97;;;;;;;;;;4501936;28;20457;-69
2022/03/30 11:24:25;;;;;;;9.10;7.65;;;;;;;;;;4503568;28;20042;-69
2022/03/30 11:26:48;;;;;;;10.05;7.80;;;;;;;;;;4505711;28;20613;-69
2022/03/30 11:28:58;;;;;;;9.13;7.15;;;;;;;;;;4505905;28;20033;-69
2022/03/30 11:31:20;;;;;;;9.90;7.43;;;;;;;;;;4497691;28;20880;-69
2022/03/30 11:33:34;;;;;;;9.40;7.60;;;;;;;;;;4492187;28;20035;-69
2022/03/30 11:35:48;;;;;;;10.38;7.82;;;;;;;;;;4500687;28;20799;-69
2022/03/30 11:38:04;;;;;;;10.05;7.47;;;;;;;;;;4504146;28;20038;-69
2022/03/30 11:40:20;;;;;;;9.40;7.30;;;;;;;;;;4505359;28;20042;-69
2022/03/30 11:42:30;;;;;;;10.95;8.02;;;;;;;;;;4504141;28;20120;-70
2022/03/30 11:47:16;;;;;;;10.55;8.20;;;;;;;;;;4503429;28;20042;-69
2022/03/30 11:49:26;;;;;;;10.45;7.75;;;;;;;;;;4491136;28;20097;-71
2022/03/30 11:51:37;;;;;;;9.33;7.67;;;;;;;;;;4503272;28;28546;-70
2022/03/30 11:53:47;;;;;;;9.53;7.97;;;;;;;;;;4503322;28;20033;-70
2022/03/30 11:56:00;;;;;;;11.00;8.20;;;;;;;;;;4505258;28;20042;-69
2022/03/30 11:58:10;;;;;;;10.02;8.23;;;;;;;;;;4506031;28;20038;-69
2022/03/30 12:00:22;;;;;;;8.93;7.37;;;;;;;;;;4504655;28;20038;-70
2022/03/30 12:02:33;;;;;;;11.15;8.93;;;;;;;;;;4505486;28;20120;-69
2022/03/30 12:04:44;;;;;;;10.98;8.40;;;;;;;;;;4503992;28;20097;-69
2022/03/30 12:06:55;;;;;;;11.27;8.83;;;;;;;;;;4504894;28;20049;-69
2022/03/30 12:09:07;;;;;;;11.70;9.02;;;;;;;;;;4502656;28;20133;-69
2022/03/30 12:11:21;;;;;;;11.73;10.05;;;;;;;;;;4505269;28;20045;-69
2022/03/30 12:13:31;;;;;;;12.68;9.77;;;;;;;;;;4503314;28;20038;-69
2022/03/30 12:15:41;;;;;;;11.20;9.57;;;;;;;;;;4503389;28;34552;-69
2022/03/30 12:17:59;;;;;;;11.20;9.50;;;;;;;;;;4502843;28;20069;-69
2022/03/30 12:20:12;;;;;;;12.13;9.85;;;;;;;;;;4504826;28;20601;-70
2022/03/30 12:22:23;;;;;;;12.63;10.32;;;;;;;;;;4503218;28;20040;-69
2022/03/30 12:24:34;;;;;;;14.20;10.82;;;;;;;;;;4503191;28;20096;-70
2022/03/30 12:26:50;;;;;;;13.80;10.40;;;;;;;;;;4504485;28;20084;-69
2022/03/30 12:29:15;;;;;;;13.40;10.82;;;;;;;;;;4503885;28;20076;-69
2022/03/30 12:31:25;;;;;;;10.43;8.57;;;;;;;;;;4503574;28;20076;-69
2022/03/30 12:33:50;;;;;;;9.07;7.43;;;;;;;;;;4503525;28;29430;-69
2022/03/30 12:36:12;;;;;;;12.77;10.70;;;;;;;;;;4506603;28;20027;-70
2022/03/30 12:38:26;;;;;;;12.95;10.80;;;;;;;;;;4502985;28;20616;-69
2022/03/30 12:40:40;;;;;;;13.40;11.20;;;;;;;;;;4505343;28;20865;-69
2022/03/30 12:42:59;;;;;;;13.63;11.25;;;;;;;;;;4486546;28;20038;-69
2022/03/30 12:45:11;;;;;;;13.50;11.52;;;;;;;;;;4501577;28;20041;-69
2022/03/30 12:47:31;;;;;;;;;;;;;;;;;;4504052;28;20088;-70
2022/03/30 12:49:42;;;;;;;14.32;11.10;;;;;;;;;;4502591;28;20456;-69
2022/03/30 12:52:02;;;;;;;;;;;;;;;;;;4519640;28;20133;-69
2022/03/30 12:54:21;;;;;;;13.43;11.20;;;;;;;;;;4503420;28;19964;-69
2022/03/30 12:56:31;;;;;;;13.63;11.10;;;;;;;;;;4504269;28;20080;-69
2022/03/30 12:58:53;;;;;;;12.97;11.00;;;;;;;;;;4503174;28;20073;-69
2022/03/30 13:01:05;;;;;;;13.27;10.73;;;;;;;;;;4502243;28;20041;-69
2022/03/30 13:03:22;;;;;;;13.77;11.38;;;;;;;;;;4502223;28;20038;-69
2022/03/30 13:05:34;;;;;;;13.55;11.20;;;;;;;;;;4503559;28;20161;-70
2022/03/30 13:07:49;;;;;;;13.73;11.57;;;;;;;;;;4503114;28;20033;-70
2022/03/30 13:09:59;;;;;;;7.53;4.40;;;;;;;;;;4501553;28;20640;-70
2022/03/30 13:12:11;;;;;;;8.17;4.63;;;;;;;;;;4504003;28;20322;-69
2022/03/30 13:14:22;;;;;;;;;;;;;;;;;;4502680;28;20037;-69
2022/03/30 13:16:33;;;;;;;7.85;4.18;;;;;;;;;;4502310;28;19921;-70
2022/03/30 13:18:59;;;;;;;7.10;4.30;;;;;;;;;;4507115;28;20046;-69